AirNav   Bose ProFlight Series 2 Headset
 
 912 users online  

FD11 FPC Heliport
Jacksonville, Florida, USA

GOING TO JACKSONVILLE?


FAA INFORMATION EFFECTIVE 30 JANUARY 2020

Location

FAA Identifier: FD11
Lat/Long: 30-18-40.8610N 081-40-29.3450W
30-18.681017N 081-40.489083W
30.3113503,-81.6748181
(estimated)
Elevation: 8 ft. / 2 m (estimated)
Variation: 03W (1984)
Time zone: UTC -5 (UTC -4 during Daylight Saving Time)
Zip code: 32204

Heliport Operations

Heliport use: Private use. Permission required prior to landing
Activation date: 06/1984
Control tower: no
ARTCC: JACKSONVILLE CENTER
FSS: GAINESVILLE FLIGHT SERVICE STATION
Attendance: UNATNDD
Wind indicator: yes
Segmented circle: no

Heliport Communications

WX AWOS-3 at HEG (7 nm W): 119.275 (904-695-0334)
WX ASOS at CRG (8 nm E): PHONE 904-646-4670
WX ASOS at JAX (11 nm N): PHONE 904-741-4304
WX AWOS-3 at VQQ (12 nm SW): 125.275 (904-778-6934)

Nearby radio navigation aids

VOR radial/distance  VOR name  Freq  Var
CRGr262/8.7CRAIG VORTAC114.5003W
VQQr065/(12.7)CECIL VOR117.9003W
SGJr326/27.8ST AUGUSTINE VOR/DME109.4006W

 
NDB name  Hdg/Dist  Freq  Var  ID
DINNS151/11.334406WJA .--- .-
REYNOLDS005/20.733807WRYD .-. -.-- -..

Heliport Services

Runway Information

Helipad H1

Dimensions: 50 x 50 ft. / 15 x 15 m
Surface: asphalt
Traffic pattern: leftleft

Heliport Ownership and Management from official FAA records

Ownership: Privately-owned
Owner: FLORIDA PUBLISHING CO
ONE RIVERSIDE DR
JACKSONVILLE, FL 32202
Phone 904-359-4111
Manager: CARL N CANNON
ONE RIVERSIDE DR
JACKSONVILLE, FL 32202
Phone 904-359-4111

Additional Remarks

A52-H1 20' TREES 75' WEST.
FOR CD CTC JACKSONVILLE APCH AT 904-741-0284.

Instrument Procedures

There are no published instrument procedures at FD11.

Some nearby airports with instrument procedures:

KNIP - Jacksonville Naval Air Station (Towers Field) (5 nm S)
KHEG - Herlong Recreational Airport (7 nm W)
KCRG - Jacksonville Executive Airport at Craig (8 nm E)
KJAX - Jacksonville International Airport (11 nm N)
KVQQ - Cecil Airport (12 nm SW)
KNRB - Mayport Naval Station (Adm David L. McDonald Field) (14 nm E)
 
Loc | Ops | Rwys | IFR | FBO | Links
Com | Nav | Svcs | Stats | Notes
Area around FD11 (FPC Heliport)
 
Road maps at: MapQuest Bing Google
 
Aerial photo
No photo
 
Sectional chart

 
Airport distance calculator
Flying to FPC Heliport? Find the distance to fly.

From to FD11

Sunrise and sunset
Times for 16-Feb-2020
 Local
(UTC-5)
 Zulu
(UTC)
Morning civil twilight06:4311:43
Sunrise07:0712:07
Sunset18:1523:15
Evening civil twilight18:3923:39

Current date and time
Zulu (UTC)  17-Feb-2020 01:26:50
Local (UTC-5)  16-Feb-2020 20:26:50
 
METAR
KNIP 
6nm S 
170053Z 05005KT 10SM FEW006 SCT075 OVC100 17/14 A3012 RMK AO2 RAB38E47 SLP196 P0000 T01670139
KHEG 
7nm W 
170115Z AUTO 00000KT 8SM -DZ FEW041 BKN075 OVC100 15/15 A3013 RMK AO2
KCRG 
8nm E 
170053Z 06004KT 10SM SCT080 OVC110 15/14 A3012 RMK AO2 RAE08 SLP199 P0001 T01500144
KJAX 
11nm N 
170056Z 00000KT 10SM -RA FEW017 BKN085 OVC110 15/13 A3010 RMK AO2 RAE2358B36 SLP193 P0000 T01500133 $
KVQQ 
12nm SW 
170050Z 00000KT 10SM BKN031 15/14 A3012
KNRB 
14nm E 
170052Z AUTO 02004KT 10SM -RA FEW075 FEW090 OVC110 14/14 A3012 RMK AO2 RAE20B46 SLP199 P0000 T01440139 $
TAF
KNIP 
6nm S 
1623/1723 VRB06KT 3200 RA BKN035 OVC050 QNH3005INS TEMPO 1623/1705 VRB06KT 9999 VCSH BKN012 OVC050 BECMG 1708/1710 04008KT 9999 BKN015 OVC020 QNH3000INS TEMPO 1708/1714 VRB06KT 8000 BR SCT010 BKN020 OVC025 OVC050 TEMPO 1714/1716 VRB06KT 4800 BR BKN005 OVC015 AUTOMATED SENSOR METWATCH 1705 TIL 1805 T16/1710Z T22/1720Z FN00218
KCRG 
8nm E 
162314Z 1623/1718 02008KT 5SM RA BR SCT008 BKN015 TEMPO 1623/1702 BKN008 FM170300 06005KT 3SM -RA BR SCT003 OVC008 FM170500 VRB03KT 3SM -DZ BR OVC003 FM171000 VRB04KT 2SM BR OVC002 FM171500 03007KT 3SM BR BKN003 OVC005 FM171700 05009KT 6SM BR SCT008 BKN015
KJAX 
11nm N 
162310Z 1623/1718 02008KT 5SM RA BR SCT008 BKN015 TEMPO 1623/1702 BKN008 FM170200 06005KT 3SM -RA BR SCT003 OVC008 FM170400 VRB03KT 3SM -DZ BR OVC003 FM171000 VRB04KT 2SM BR OVC002 FM171500 04006KT 3SM BR BKN003 OVC005 FM171700 06008KT 6SM BR SCT008 BKN015
KVQQ 
12nm SW 
162210Z 1622/1718 01007KT 3SM RA BR BKN015 TEMPO 1622/1624 VRB10G25KT 2SM SHRA BR BKN008 FM170000 VRB03KT 3SM -RA BR OVC006 FM170400 00000KT 2SM BR OVC002 FM171500 06006KT P6SM BKN006
KNRB 
14nm E 
1623/1723 VRB06KT 9999 VCSH SCT035 BKN045 QNH3001INS TEMPO 1623/1705 VRB06KT 8000 -SHRA BKN012 OVC050 BECMG 1705/1707 VRB06KT 8000 BR BKN015 OVC020 QNH3000INS BECMG 1710/1712 04008KT 9999 BKN015 OVC020 QNH3003INS AUTOMATED SENSOR METWATCH 1623 TIL 1810 T14/1710Z T18/1720Z FN00218
NOTAMs
Click for the latest NOTAMs
NOTAMs are issued by the DoD/FAA and will open in a separate window not controlled by AirNav.

 

 
 

Would you like to see your business listed on this page?

 If your business provides an interesting product or service to pilots, flight crews, aircraft, or users of the FPC Heliport, you should consider listing it here.  To start the listing process, click on the button below
 
Add a business
 

Other Pages about FPC Heliport

Update a link
 
Copyright © AirNav, LLC. All rights reserved. Privacy Policy  Contact